sensor_id;sensor_type;location;lat;lon;timestamp;temperature;humidity
25440;DHT22;13365;52.208;5.488;2023-12-28T00:02:14;13.70;99.90
25440;DHT22;13365;52.208;5.488;2023-12-28T00:04:41;13.70;99.90
25440;DHT22;13365;52.208;5.488;2023-12-28T00:07:06;13.80;99.90
25440;DHT22;13365;52.208;5.488;2023-12-28T00:09:32;13.90;99.90
25440;DHT22;13365;52.208;5.488;2023-12-28T00:11:58;13.90;99.90
25440;DHT22;13365;52.208;5.488;2023-12-28T00:14:24;14.10;99.90
25440;DHT22;13365;52.208;5.488;2023-12-28T00:16:50;14.10;99.90
25440;DHT22;13365;52.208;5.488;2023-12-28T00:19:15;14.00;99.90
25440;DHT22;13365;52.208;5.488;2023-12-28T00:21:41;14.10;99.90
25440;DHT22;13365;52.208;5.488;2023-12-28T00:24:06;14.00;99.90
25440;DHT22;13365;52.208;5.488;2023-12-28T00:26:32;13.90;99.90
25440;DHT22;13365;52.208;5.488;2023-12-28T00:28:58;14.00;99.90
25440;DHT22;13365;52.208;5.488;2023-12-28T00:31:23;14.10;99.90
25440;DHT22;13365;52.208;5.488;2023-12-28T00:33:49;14.10;99.90
25440;DHT22;13365;52.208;5.488;2023-12-28T00:36:15;14.20;99.90
25440;DHT22;13365;52.208;5.488;2023-12-28T00:38:42;14.00;99.90
25440;DHT22;13365;52.208;5.488;2023-12-28T00:41:07;14.10;99.90
25440;DHT22;13365;52.208;5.488;2023-12-28T00:43:33;14.10;99.90
25440;DHT22;13365;52.208;5.488;2023-12-28T00:45:59;14.30;99.90
25440;DHT22;13365;52.208;5.488;2023-12-28T00:48:24;14.30;99.90
25440;DHT22;13365;52.208;5.488;2023-12-28T00:50:50;14.50;99.90
25440;DHT22;13365;52.208;5.488;2023-12-28T00:53:15;14.50;99.90
25440;DHT22;13365;52.208;5.488;2023-12-28T00:55:41;14.50;99.90
25440;DHT22;13365;52.208;5.488;2023-12-28T00:58:07;14.50;99.90
25440;DHT22;13365;52.208;5.488;2023-12-28T01:00:32;14.40;99.90
25440;DHT22;13365;52.208;5.488;2023-12-28T01:02:58;14.30;99.90
25440;DHT22;13365;52.208;5.488;2023-12-28T01:05:23;14.50;99.90
25440;DHT22;13365;52.208;5.488;2023-12-28T01:07:51;14.40;99.90
25440;DHT22;13365;52.208;5.488;2023-12-28T01:10:17;14.40;99.90
25440;DHT22;13365;52.208;5.488;2023-12-28T01:12:42;14.10;99.90
25440;DHT22;13365;52.208;5.488;2023-12-28T01:15:09;14.10;99.90
25440;DHT22;13365;52.208;5.488;2023-12-28T01:17:34;13.90;99.90
25440;DHT22;13365;52.208;5.488;2023-12-28T01:20:00;14.10;99.90
25440;DHT22;13365;52.208;5.488;2023-12-28T01:22:25;14.10;99.90
25440;DHT22;13365;52.208;5.488;2023-12-28T01:24:51;14.10;99.90
25440;DHT22;13365;52.208;5.488;2023-12-28T01:27:17;14.10;99.90
25440;DHT22;13365;52.208;5.488;2023-12-28T01:29:45;14.20;99.90
25440;DHT22;13365;52.208;5.488;2023-12-28T01:32:11;14.00;99.90
25440;DHT22;13365;52.208;5.488;2023-12-28T01:34:36;13.80;99.90
25440;DHT22;13365;52.208;5.488;2023-12-28T01:37:02;14.00;99.90
25440;DHT22;13365;52.208;5.488;2023-12-28T01:39:27;13.80;99.90
25440;DHT22;13365;52.208;5.488;2023-12-28T01:41:53;13.70;99.90
25440;DHT22;13365;52.208;5.488;2023-12-28T01:44:19;13.80;99.90
25440;DHT22;13365;52.208;5.488;2023-12-28T01:46:45;13.90;99.90
25440;DHT22;13365;52.208;5.488;2023-12-28T01:49:14;13.70;99.90
25440;DHT22;13365;52.208;5.488;2023-12-28T01:51:42;13.70;99.90
25440;DHT22;13365;52.208;5.488;2023-12-28T01:54:09;13.70;99.90
25440;DHT22;13365;52.208;5.488;2023-12-28T01:56:35;13.80;99.90
25440;DHT22;13365;52.208;5.488;2023-12-28T01:59:01;13.60;99.90
25440;DHT22;13365;52.208;5.488;2023-12-28T02:01:26;13.50;99.90
25440;DHT22;13365;52.208;5.488;2023-12-28T02:03:52;13.70;99.90
25440;DHT22;13365;52.208;5.488;2023-12-28T02:06:23;13.70;99.90
25440;DHT22;13365;52.208;5.488;2023-12-28T02:08:49;13.40;99.90
25440;DHT22;13365;52.208;5.488;2023-12-28T02:11:14;13.30;99.90
25440;DHT22;13365;52.208;5.488;2023-12-28T02:13:40;13.30;99.90
25440;DHT22;13365;52.208;5.488;2023-12-28T02:16:07;13.10;99.90
25440;DHT22;13365;52.208;5.488;2023-12-28T02:18:42;13.40;99.90
25440;DHT22;13365;52.208;5.488;2023-12-28T02:21:08;13.30;99.90
25440;DHT22;13365;52.208;5.488;2023-12-28T02:23:34;13.30;99.90
25440;DHT22;13365;52.208;5.488;2023-12-28T02:26:00;13.50;99.90
25440;DHT22;13365;52.208;5.488;2023-12-28T02:28:25;13.40;99.90
25440;DHT22;13365;52.208;5.488;2023-12-28T02:30:51;13.40;99.90
25440;DHT22;13365;52.208;5.488;2023-12-28T02:33:26;13.20;99.90
25440;DHT22;13365;52.208;5.488;2023-12-28T02:36:13;13.20;99.90
25440;DHT22;13365;52.208;5.488;2023-12-28T02:38:41;13.20;99.90
25440;DHT22;13365;52.208;5.488;2023-12-28T02:41:08;13.10;99.90
25440;DHT22;13365;52.208;5.488;2023-12-28T02:43:34;13.30;99.90
25440;DHT22;13365;52.208;5.488;2023-12-28T02:46:00;13.20;99.90
25440;DHT22;13365;52.208;5.488;2023-12-28T02:48:26;13.20;99.90
25440;DHT22;13365;52.208;5.488;2023-12-28T02:50:51;13.10;99.90
25440;DHT22;13365;52.208;5.488;2023-12-28T02:53:17;13.20;99.90
25440;DHT22;13365;52.208;5.488;2023-12-28T02:55:43;13.20;99.90
25440;DHT22;13365;52.208;5.488;2023-12-28T02:58:09;13.40;99.90
25440;DHT22;13365;52.208;5.488;2023-12-28T03:00:35;13.30;99.90
25440;DHT22;13365;52.208;5.488;2023-12-28T03:03:01;13.30;99.90
25440;DHT22;13365;52.208;5.488;2023-12-28T03:05:26;13.30;99.90
25440;DHT22;13365;52.208;5.488;2023-12-28T03:07:52;13.40;99.90
25440;DHT22;13365;52.208;5.488;2023-12-28T03:10:18;13.50;99.90
25440;DHT22;13365;52.208;5.488;2023-12-28T03:12:43;13.50;99.90
25440;DHT22;13365;52.208;5.488;2023-12-28T03:15:09;13.60;99.90
25440;DHT22;13365;52.208;5.488;2023-12-28T03:17:35;13.50;99.90
25440;DHT22;13365;52.208;5.488;2023-12-28T03:20:02;13.60;99.90
25440;DHT22;13365;52.208;5.488;2023-12-28T03:22:28;13.60;99.90
25440;DHT22;13365;52.208;5.488;2023-12-28T03:24:53;13.60;99.90
25440;DHT22;13365;52.208;5.488;2023-12-28T03:27:19;13.50;99.90
25440;DHT22;13365;52.208;5.488;2023-12-28T03:29:44;13.50;99.90
25440;DHT22;13365;52.208;5.488;2023-12-28T03:32:10;13.40;99.90
25440;DHT22;13365;52.208;5.488;2023-12-28T03:34:36;13.50;99.90
25440;DHT22;13365;52.208;5.488;2023-12-28T03:37:02;13.50;99.90
25440;DHT22;13365;52.208;5.488;2023-12-28T03:39:28;13.40;99.90
25440;DHT22;13365;52.208;5.488;2023-12-28T03:41:53;13.50;99.90
25440;DHT22;13365;52.208;5.488;2023-12-28T03:44:20;13.50;99.90
25440;DHT22;13365;52.208;5.488;2023-12-28T03:46:50;13.50;99.90
25440;DHT22;13365;52.208;5.488;2023-12-28T03:49:17;13.50;99.90
25440;DHT22;13365;52.208;5.488;2023-12-28T03:51:43;13.60;99.90
25440;DHT22;13365;52.208;5.488;2023-12-28T03:54:08;13.70;99.90
25440;DHT22;13365;52.208;5.488;2023-12-28T03:56:35;13.60;99.90
25440;DHT22;13365;52.208;5.488;2023-12-28T03:59:01;13.70;99.90
25440;DHT22;13365;52.208;5.488;2023-12-28T04:01:27;13.70;99.90
25440;DHT22;13365;52.208;5.488;2023-12-28T04:03:52;13.60;99.90
25440;DHT22;13365;52.208;5.488;2023-12-28T04:06:18;13.50;99.90
25440;DHT22;13365;52.208;5.488;2023-12-28T04:08:44;13.60;99.90
25440;DHT22;13365;52.208;5.488;2023-12-28T04:11:09;13.70;99.90
25440;DHT22;13365;52.208;5.488;2023-12-28T04:13:36;13.60;99.90
25440;DHT22;13365;52.208;5.488;2023-12-28T04:16:02;13.50;99.90
25440;DHT22;13365;52.208;5.488;2023-12-28T04:18:28;13.70;99.90
25440;DHT22;13365;52.208;5.488;2023-12-28T04:20:53;13.70;99.90
25440;DHT22;13365;52.208;5.488;2023-12-28T04:23:19;13.60;99.90
25440;DHT22;13365;52.208;5.488;2023-12-28T04:25:44;13.60;99.90
25440;DHT22;13365;52.208;5.488;2023-12-28T04:28:10;13.50;99.90
25440;DHT22;13365;52.208;5.488;2023-12-28T04:30:36;13.60;99.90
25440;DHT22;13365;52.208;5.488;2023-12-28T04:33:01;13.60;99.90
25440;DHT22;13365;52.208;5.488;2023-12-28T04:35:27;13.60;99.90
25440;DHT22;13365;52.208;5.488;2023-12-28T04:37:54;13.70;99.90
25440;DHT22;13365;52.208;5.488;2023-12-28T04:40:20;13.70;99.90
25440;DHT22;13365;52.208;5.488;2023-12-28T04:42:46;13.70;99.90
25440;DHT22;13365;52.208;5.488;2023-12-28T04:45:11;13.70;99.90
25440;DHT22;13365;52.208;5.488;2023-12-28T04:47:37;13.90;99.90
25440;DHT22;13365;52.208;5.488;2023-12-28T04:50:06;13.80;99.90
25440;DHT22;13365;52.208;5.488;2023-12-28T04:52:32;13.70;99.90
25440;DHT22;13365;52.208;5.488;2023-12-28T04:54:58;13.80;99.90
25440;DHT22;13365;52.208;5.488;2023-12-28T04:57:24;13.80;99.90
25440;DHT22;13365;52.208;5.488;2023-12-28T04:59:52;13.70;99.90
25440;DHT22;13365;52.208;5.488;2023-12-28T05:02:17;13.60;99.90
25440;DHT22;13365;52.208;5.488;2023-12-28T05:04:43;13.70;99.90
25440;DHT22;13365;52.208;5.488;2023-12-28T05:07:09;13.60;99.90
25440;DHT22;13365;52.208;5.488;2023-12-28T05:09:34;13.70;99.90
25440;DHT22;13365;52.208;5.488;2023-12-28T05:12:00;13.70;99.90
25440;DHT22;13365;52.208;5.488;2023-12-28T05:14:25;13.70;99.90
25440;DHT22;13365;52.208;5.488;2023-12-28T05:16:51;13.90;99.90
25440;DHT22;13365;52.208;5.488;2023-12-28T05:19:17;13.90;99.90
25440;DHT22;13365;52.208;5.488;2023-12-28T05:21:42;13.90;99.90
25440;DHT22;13365;52.208;5.488;2023-12-28T05:24:08;13.90;99.90
25440;DHT22;13365;52.208;5.488;2023-12-28T05:26:34;13.90;99.90
25440;DHT22;13365;52.208;5.488;2023-12-28T05:28:59;13.90;99.90
25440;DHT22;13365;52.208;5.488;2023-12-28T05:31:25;13.90;99.90
25440;DHT22;13365;52.208;5.488;2023-12-28T05:33:51;13.90;99.90
25440;DHT22;13365;52.208;5.488;2023-12-28T05:36:17;13.90;99.90
25440;DHT22;13365;52.208;5.488;2023-12-28T05:38:42;13.80;99.90
25440;DHT22;13365;52.208;5.488;2023-12-28T05:41:11;13.90;99.90
25440;DHT22;13365;52.208;5.488;2023-12-28T05:43:37;13.90;99.90
25440;DHT22;13365;52.208;5.488;2023-12-28T05:46:04;13.80;99.90
25440;DHT22;13365;52.208;5.488;2023-12-28T05:48:29;13.80;99.90
25440;DHT22;13365;52.208;5.488;2023-12-28T05:50:59;13.90;99.90
25440;DHT22;13365;52.208;5.488;2023-12-28T05:53:26;14.10;99.90
25440;DHT22;13365;52.208;5.488;2023-12-28T05:55:53;14.10;99.90
25440;DHT22;13365;52.208;5.488;2023-12-28T05:58:19;13.90;99.90
25440;DHT22;13365;52.208;5.488;2023-12-28T06:00:45;14.10;99.90
25440;DHT22;13365;52.208;5.488;2023-12-28T06:03:13;14.20;99.90
25440;DHT22;13365;52.208;5.488;2023-12-28T06:05:39;14.20;99.90
25440;DHT22;13365;52.208;5.488;2023-12-28T06:08:05;14.10;99.90
25440;DHT22;13365;52.208;5.488;2023-12-28T06:10:31;14.20;99.90
25440;DHT22;13365;52.208;5.488;2023-12-28T06:12:56;14.30;99.90
25440;DHT22;13365;52.208;5.488;2023-12-28T06:15:22;14.30;99.90
25440;DHT22;13365;52.208;5.488;2023-12-28T06:17:47;14.40;99.90
25440;DHT22;13365;52.208;5.488;2023-12-28T06:20:13;14.40;99.90
25440;DHT22;13365;52.208;5.488;2023-12-28T06:22:40;14.40;99.90
25440;DHT22;13365;52.208;5.488;2023-12-28T06:25:06;14.20;99.90
25440;DHT22;13365;52.208;5.488;2023-12-28T06:27:31;14.30;99.90
25440;DHT22;13365;52.208;5.488;2023-12-28T06:29:57;14.10;99.90
25440;DHT22;13365;52.208;5.488;2023-12-28T06:32:23;14.10;99.90
25440;DHT22;13365;52.208;5.488;2023-12-28T06:34:51;14.30;99.90
25440;DHT22;13365;52.208;5.488;2023-12-28T06:37:16;14.40;99.90
25440;DHT22;13365;52.208;5.488;2023-12-28T06:39:42;14.30;99.90
25440;DHT22;13365;52.208;5.488;2023-12-28T06:42:08;14.40;99.90
25440;DHT22;13365;52.208;5.488;2023-12-28T06:44:36;14.40;99.90
25440;DHT22;13365;52.208;5.488;2023-12-28T06:47:01;14.40;99.90
25440;DHT22;13365;52.208;5.488;2023-12-28T06:49:27;14.40;99.90
25440;DHT22;13365;52.208;5.488;2023-12-28T06:51:52;14.30;99.90
25440;DHT22;13365;52.208;5.488;2023-12-28T06:54:18;14.20;99.90
25440;DHT22;13365;52.208;5.488;2023-12-28T06:56:44;14.20;99.90
25440;DHT22;13365;52.208;5.488;2023-12-28T06:59:09;14.20;99.90
25440;DHT22;13365;52.208;5.488;2023-12-28T07:01:39;14.40;99.90
25440;DHT22;13365;52.208;5.488;2023-12-28T07:04:05;14.40;99.90
25440;DHT22;13365;52.208;5.488;2023-12-28T07:06:30;14.30;99.90
25440;DHT22;13365;52.208;5.488;2023-12-28T07:08:56;14.40;99.90
25440;DHT22;13365;52.208;5.488;2023-12-28T07:11:21;14.40;99.90
25440;DHT22;13365;52.208;5.488;2023-12-28T07:13:48;14.30;99.90
25440;DHT22;13365;52.208;5.488;2023-12-28T07:16:13;14.40;99.90
25440;DHT22;13365;52.208;5.488;2023-12-28T07:18:39;14.30;99.90
25440;DHT22;13365;52.208;5.488;2023-12-28T07:21:05;14.20;99.90
25440;DHT22;13365;52.208;5.488;2023-12-28T07:23:31;14.30;99.90
25440;DHT22;13365;52.208;5.488;2023-12-28T07:25:57;14.40;99.90
25440;DHT22;13365;52.208;5.488;2023-12-28T07:28:23;14.40;99.90
25440;DHT22;13365;52.208;5.488;2023-12-28T07:30:48;14.50;99.90
25440;DHT22;13365;52.208;5.488;2023-12-28T07:33:15;14.50;99.90
25440;DHT22;13365;52.208;5.488;2023-12-28T07:35:41;14.50;99.90
25440;DHT22;13365;52.208;5.488;2023-12-28T07:38:06;14.50;99.90
25440;DHT22;13365;52.208;5.488;2023-12-28T07:40:32;14.30;99.90
25440;DHT22;13365;52.208;5.488;2023-12-28T07:42:57;14.40;99.90
25440;DHT22;13365;52.208;5.488;2023-12-28T07:45:23;14.40;99.90
25440;DHT22;13365;52.208;5.488;2023-12-28T07:47:50;14.30;99.90
25440;DHT22;13365;52.208;5.488;2023-12-28T07:50:17;14.20;99.90
25440;DHT22;13365;52.208;5.488;2023-12-28T07:52:43;14.10;99.90
25440;DHT22;13365;52.208;5.488;2023-12-28T07:55:08;14.00;99.90
25440;DHT22;13365;52.208;5.488;2023-12-28T07:57:35;13.80;99.90
25440;DHT22;13365;52.208;5.488;2023-12-28T08:00:01;13.90;99.90
25440;DHT22;13365;52.208;5.488;2023-12-28T08:02:27;14.10;99.90
25440;DHT22;13365;52.208;5.488;2023-12-28T08:04:53;14.10;99.90
25440;DHT22;13365;52.208;5.488;2023-12-28T08:07:19;14.10;99.90
25440;DHT22;13365;52.208;5.488;2023-12-28T08:09:44;14.10;99.90
25440;DHT22;13365;52.208;5.488;2023-12-28T08:12:10;14.30;99.90
25440;DHT22;13365;52.208;5.488;2023-12-28T08:14:37;14.30;99.90
25440;DHT22;13365;52.208;5.488;2023-12-28T08:17:03;14.30;99.90
25440;DHT22;13365;52.208;5.488;2023-12-28T08:19:28;14.30;99.90
25440;DHT22;13365;52.208;5.488;2023-12-28T08:21:54;14.10;99.90
25440;DHT22;13365;52.208;5.488;2023-12-28T08:24:21;14.20;99.90
25440;DHT22;13365;52.208;5.488;2023-12-28T08:26:46;14.30;99.90
25440;DHT22;13365;52.208;5.488;2023-12-28T08:29:12;14.30;99.90
25440;DHT22;13365;52.208;5.488;2023-12-28T08:31:38;14.10;99.90
25440;DHT22;13365;52.208;5.488;2023-12-28T08:34:04;14.20;99.90
25440;DHT22;13365;52.208;5.488;2023-12-28T08:36:31;14.20;99.90
25440;DHT22;13365;52.208;5.488;2023-12-28T08:38:56;14.20;99.90
25440;DHT22;13365;52.208;5.488;2023-12-28T08:41:23;14.30;99.90
25440;DHT22;13365;52.208;5.488;2023-12-28T08:43:53;14.30;99.90
25440;DHT22;13365;52.208;5.488;2023-12-28T08:46:22;14.40;99.90
25440;DHT22;13365;52.208;5.488;2023-12-28T08:48:50;14.50;99.90
25440;DHT22;13365;52.208;5.488;2023-12-28T08:51:16;14.40;99.90
25440;DHT22;13365;52.208;5.488;2023-12-28T08:53:41;14.50;99.90
25440;DHT22;13365;52.208;5.488;2023-12-28T08:56:16;14.50;99.90
25440;DHT22;13365;52.208;5.488;2023-12-28T08:58:43;14.60;99.90
25440;DHT22;13365;52.208;5.488;2023-12-28T09:01:08;14.50;99.90
25440;DHT22;13365;52.208;5.488;2023-12-28T09:03:34;14.50;99.90
25440;DHT22;13365;52.208;5.488;2023-12-28T09:06:00;14.50;99.90
25440;DHT22;13365;52.208;5.488;2023-12-28T09:08:25;14.50;99.90
25440;DHT22;13365;52.208;5.488;2023-12-28T09:10:51;14.50;99.90
25440;DHT22;13365;52.208;5.488;2023-12-28T09:13:16;14.40;99.90
25440;DHT22;13365;52.208;5.488;2023-12-28T09:15:43;14.40;99.90
25440;DHT22;13365;52.208;5.488;2023-12-28T09:18:08;14.20;99.90
25440;DHT22;13365;52.208;5.488;2023-12-28T09:20:34;14.30;99.90
25440;DHT22;13365;52.208;5.488;2023-12-28T09:23:01;14.40;99.90
25440;DHT22;13365;52.208;5.488;2023-12-28T09:25:27;14.50;99.90
25440;DHT22;13365;52.208;5.488;2023-12-28T09:27:52;14.50;99.90
25440;DHT22;13365;52.208;5.488;2023-12-28T09:30:18;14.70;99.90
25440;DHT22;13365;52.208;5.488;2023-12-28T09:32:44;14.80;99.90
25440;DHT22;13365;52.208;5.488;2023-12-28T09:35:10;14.80;99.90
25440;DHT22;13365;52.208;5.488;2023-12-28T09:37:37;14.90;99.90
25440;DHT22;13365;52.208;5.488;2023-12-28T09:40:02;15.00;99.90
25440;DHT22;13365;52.208;5.488;2023-12-28T09:42:43;14.90;99.90
25440;DHT22;13365;52.208;5.488;2023-12-28T09:45:14;14.90;99.90
25440;DHT22;13365;52.208;5.488;2023-12-28T09:47:40;14.80;99.90
25440;DHT22;13365;52.208;5.488;2023-12-28T09:50:08;14.90;99.90
25440;DHT22;13365;52.208;5.488;2023-12-28T09:52:34;15.00;99.90
25440;DHT22;13365;52.208;5.488;2023-12-28T09:55:03;14.90;99.90
25440;DHT22;13365;52.208;5.488;2023-12-28T09:57:29;15.10;99.90
25440;DHT22;13365;52.208;5.488;2023-12-28T09:59:58;15.00;99.90
25440;DHT22;13365;52.208;5.488;2023-12-28T10:02:24;15.00;99.90
25440;DHT22;13365;52.208;5.488;2023-12-28T10:04:50;15.20;99.90
25440;DHT22;13365;52.208;5.488;2023-12-28T10:07:15;15.20;99.90
25440;DHT22;13365;52.208;5.488;2023-12-28T10:09:41;14.90;99.90
25440;DHT22;13365;52.208;5.488;2023-12-28T10:12:07;14.90;99.90
25440;DHT22;13365;52.208;5.488;2023-12-28T10:14:33;15.10;99.90
25440;DHT22;13365;52.208;5.488;2023-12-28T10:16:59;15.10;99.90
25440;DHT22;13365;52.208;5.488;2023-12-28T10:19:25;15.20;99.90
25440;DHT22;13365;52.208;5.488;2023-12-28T10:21:50;15.20;99.90
25440;DHT22;13365;52.208;5.488;2023-12-28T10:24:16;15.10;99.90
25440;DHT22;13365;52.208;5.488;2023-12-28T10:26:42;15.10;99.90
25440;DHT22;13365;52.208;5.488;2023-12-28T10:29:07;15.00;99.90
25440;DHT22;13365;52.208;5.488;2023-12-28T10:31:34;14.90;99.90
25440;DHT22;13365;52.208;5.488;2023-12-28T10:34:00;15.00;99.90
25440;DHT22;13365;52.208;5.488;2023-12-28T10:36:28;15.00;99.90
25440;DHT22;13365;52.208;5.488;2023-12-28T10:38:54;14.80;99.90
25440;DHT22;13365;52.208;5.488;2023-12-28T10:41:22;14.80;99.90
25440;DHT22;13365;52.208;5.488;2023-12-28T10:44:04;14.60;99.90
25440;DHT22;13365;52.208;5.488;2023-12-28T10:46:31;14.50;99.90
25440;DHT22;13365;52.208;5.488;2023-12-28T10:49:05;14.60;99.90
25440;DHT22;13365;52.208;5.488;2023-12-28T10:51:34;14.70;99.90
25440;DHT22;13365;52.208;5.488;2023-12-28T10:54:56;14.80;99.90
25440;DHT22;13365;52.208;5.488;2023-12-28T10:57:23;14.80;99.90
25440;DHT22;13365;52.208;5.488;2023-12-28T11:00:11;14.90;99.90
25440;DHT22;13365;52.208;5.488;2023-12-28T11:02:44;14.80;99.90
25440;DHT22;13365;52.208;5.488;2023-12-28T11:05:11;14.80;99.90
25440;DHT22;13365;52.208;5.488;2023-12-28T11:07:38;14.80;99.90
25440;DHT22;13365;52.208;5.488;2023-12-28T11:10:06;14.90;99.90
25440;DHT22;13365;52.208;5.488;2023-12-28T11:12:33;14.90;99.90
25440;DHT22;13365;52.208;5.488;2023-12-28T11:14:59;14.90;99.90
25440;DHT22;13365;52.208;5.488;2023-12-28T11:17:25;14.90;99.90
25440;DHT22;13365;52.208;5.488;2023-12-28T11:19:52;15.10;99.90
25440;DHT22;13365;52.208;5.488;2023-12-28T11:22:19;15.10;99.90
25440;DHT22;13365;52.208;5.488;2023-12-28T11:24:45;15.10;99.90
25440;DHT22;13365;52.208;5.488;2023-12-28T11:27:11;15.10;99.90
25440;DHT22;13365;52.208;5.488;2023-12-28T11:29:38;15.10;99.90
25440;DHT22;13365;52.208;5.488;2023-12-28T11:32:04;15.10;99.90
25440;DHT22;13365;52.208;5.488;2023-12-28T11:34:31;15.20;99.90
25440;DHT22;13365;52.208;5.488;2023-12-28T11:37:02;15.20;99.90
25440;DHT22;13365;52.208;5.488;2023-12-28T11:39:33;15.20;99.90
25440;DHT22;13365;52.208;5.488;2023-12-28T11:42:06;15.20;99.90
25440;DHT22;13365;52.208;5.488;2023-12-28T11:44:41;15.20;99.90
25440;DHT22;13365;52.208;5.488;2023-12-28T11:47:22;15.30;99.90
25440;DHT22;13365;52.208;5.488;2023-12-28T11:49:48;15.40;99.90
25440;DHT22;13365;52.208;5.488;2023-12-28T11:52:25;15.40;99.90
25440;DHT22;13365;52.208;5.488;2023-12-28T11:54:51;15.40;99.90
25440;DHT22;13365;52.208;5.488;2023-12-28T11:57:16;15.50;99.90
25440;DHT22;13365;52.208;5.488;2023-12-28T11:59:42;15.40;99.90
25440;DHT22;13365;52.208;5.488;2023-12-28T12:02:09;15.40;99.90
25440;DHT22;13365;52.208;5.488;2023-12-28T12:04:35;15.70;99.90
25440;DHT22;13365;52.208;5.488;2023-12-28T12:07:04;15.50;99.90
25440;DHT22;13365;52.208;5.488;2023-12-28T12:09:32;15.30;99.90
25440;DHT22;13365;52.208;5.488;2023-12-28T12:12:04;15.20;99.90
25440;DHT22;13365;52.208;5.488;2023-12-28T12:14:30;15.30;99.90
25440;DHT22;13365;52.208;5.488;2023-12-28T12:16:57;15.20;99.90
25440;DHT22;13365;52.208;5.488;2023-12-28T12:19:25;15.10;99.90
25440;DHT22;13365;52.208;5.488;2023-12-28T12:21:57;15.10;99.90
25440;DHT22;13365;52.208;5.488;2023-12-28T12:24:23;15.20;99.90
25440;DHT22;13365;52.208;5.488;2023-12-28T12:26:51;15.20;99.90
25440;DHT22;13365;52.208;5.488;2023-12-28T12:29:16;15.30;99.90
25440;DHT22;13365;52.208;5.488;2023-12-28T12:31:43;15.30;99.90
25440;DHT22;13365;52.208;5.488;2023-12-28T12:34:10;15.40;99.90
25440;DHT22;13365;52.208;5.488;2023-12-28T12:36:36;15.40;99.90
25440;DHT22;13365;52.208;5.488;2023-12-28T12:39:02;15.40;99.90
25440;DHT22;13365;52.208;5.488;2023-12-28T12:41:34;15.50;99.90
25440;DHT22;13365;52.208;5.488;2023-12-28T12:44:00;15.40;99.90
25440;DHT22;13365;52.208;5.488;2023-12-28T12:46:26;15.50;99.90
25440;DHT22;13365;52.208;5.488;2023-12-28T12:48:59;15.50;99.90
25440;DHT22;13365;52.208;5.488;2023-12-28T12:51:26;15.50;99.90
25440;DHT22;13365;52.208;5.488;2023-12-28T12:53:58;15.60;99.90
25440;DHT22;13365;52.208;5.488;2023-12-28T12:56:26;15.60;99.90
25440;DHT22;13365;52.208;5.488;2023-12-28T12:58:53;15.50;99.90
25440;DHT22;13365;52.208;5.488;2023-12-28T13:01:19;15.50;99.90
25440;DHT22;13365;52.208;5.488;2023-12-28T13:03:45;15.60;99.90
25440;DHT22;13365;52.208;5.488;2023-12-28T13:06:11;15.50;99.90
25440;DHT22;13365;52.208;5.488;2023-12-28T13:08:37;15.60;99.90
25440;DHT22;13365;52.208;5.488;2023-12-28T13:11:03;15.60;99.90
25440;DHT22;13365;52.208;5.488;2023-12-28T13:13:30;15.50;99.90
25440;DHT22;13365;52.208;5.488;2023-12-28T13:15:56;15.60;99.90
25440;DHT22;13365;52.208;5.488;2023-12-28T13:18:22;15.50;99.90
25440;DHT22;13365;52.208;5.488;2023-12-28T13:20:48;15.40;99.90
25440;DHT22;13365;52.208;5.488;2023-12-28T13:23:13;15.20;99.90
25440;DHT22;13365;52.208;5.488;2023-12-28T13:25:39;15.30;99.90
25440;DHT22;13365;52.208;5.488;2023-12-28T13:28:04;15.30;99.90
25440;DHT22;13365;52.208;5.488;2023-12-28T13:30:30;15.20;99.90
25440;DHT22;13365;52.208;5.488;2023-12-28T13:32:56;15.20;99.90
25440;DHT22;13365;52.208;5.488;2023-12-28T13:35:22;14.90;99.90
25440;DHT22;13365;52.208;5.488;2023-12-28T13:37:48;15.00;99.90
25440;DHT22;13365;52.208;5.488;2023-12-28T13:40:13;15.10;99.90
25440;DHT22;13365;52.208;5.488;2023-12-28T13:42:39;15.40;99.90
25440;DHT22;13365;52.208;5.488;2023-12-28T13:45:05;15.50;99.90
25440;DHT22;13365;52.208;5.488;2023-12-28T13:47:31;15.40;99.90
25440;DHT22;13365;52.208;5.488;2023-12-28T13:49:56;15.30;99.90
25440;DHT22;13365;52.208;5.488;2023-12-28T13:52:22;15.30;99.90
25440;DHT22;13365;52.208;5.488;2023-12-28T13:54:47;15.30;99.90
25440;DHT22;13365;52.208;5.488;2023-12-28T13:57:13;15.30;99.90
25440;DHT22;13365;52.208;5.488;2023-12-28T13:59:38;15.20;99.90
25440;DHT22;13365;52.208;5.488;2023-12-28T14:02:05;15.10;99.90
25440;DHT22;13365;52.208;5.488;2023-12-28T14:04:31;15.00;99.90
25440;DHT22;13365;52.208;5.488;2023-12-28T14:06:56;14.90;99.90
25440;DHT22;13365;52.208;5.488;2023-12-28T14:09:22;14.90;99.90
25440;DHT22;13365;52.208;5.488;2023-12-28T14:11:47;15.00;99.90
25440;DHT22;13365;52.208;5.488;2023-12-28T14:14:14;15.00;99.90
25440;DHT22;13365;52.208;5.488;2023-12-28T14:16:40;14.90;99.90
25440;DHT22;13365;52.208;5.488;2023-12-28T14:19:05;14.60;99.90
25440;DHT22;13365;52.208;5.488;2023-12-28T14:21:38;14.70;99.90
25440;DHT22;13365;52.208;5.488;2023-12-28T14:24:04;14.80;99.90
25440;DHT22;13365;52.208;5.488;2023-12-28T14:26:32;14.80;99.90
25440;DHT22;13365;52.208;5.488;2023-12-28T14:28:59;14.80;99.90
25440;DHT22;13365;52.208;5.488;2023-12-28T14:31:25;14.80;99.90
25440;DHT22;13365;52.208;5.488;2023-12-28T14:33:54;14.90;99.90
25440;DHT22;13365;52.208;5.488;2023-12-28T14:36:34;14.90;99.90
25440;DHT22;13365;52.208;5.488;2023-12-28T14:39:01;14.80;99.90
25440;DHT22;13365;52.208;5.488;2023-12-28T14:41:27;14.70;99.90
25440;DHT22;13365;52.208;5.488;2023-12-28T14:43:56;14.70;99.90
25440;DHT22;13365;52.208;5.488;2023-12-28T14:46:25;14.80;99.90
25440;DHT22;13365;52.208;5.488;2023-12-28T14:48:52;14.60;99.90
25440;DHT22;13365;52.208;5.488;2023-12-28T14:51:18;14.40;99.90
25440;DHT22;13365;52.208;5.488;2023-12-28T14:53:44;14.30;99.90
25440;DHT22;13365;52.208;5.488;2023-12-28T14:56:10;14.40;99.90
25440;DHT22;13365;52.208;5.488;2023-12-28T14:58:37;14.60;99.90
25440;DHT22;13365;52.208;5.488;2023-12-28T15:01:03;14.40;99.90
25440;DHT22;13365;52.208;5.488;2023-12-28T15:03:28;14.30;99.90
25440;DHT22;13365;52.208;5.488;2023-12-28T15:05:54;14.40;99.90
25440;DHT22;13365;52.208;5.488;2023-12-28T15:08:23;14.40;99.90
25440;DHT22;13365;52.208;5.488;2023-12-28T15:10:48;14.30;99.90
25440;DHT22;13365;52.208;5.488;2023-12-28T15:13:14;14.40;99.90
25440;DHT22;13365;52.208;5.488;2023-12-28T15:15:40;14.50;99.90
25440;DHT22;13365;52.208;5.488;2023-12-28T15:18:06;14.40;99.90
25440;DHT22;13365;52.208;5.488;2023-12-28T15:20:32;14.40;99.90
25440;DHT22;13365;52.208;5.488;2023-12-28T15:22:58;14.40;99.90
25440;DHT22;13365;52.208;5.488;2023-12-28T15:25:23;14.40;99.90
25440;DHT22;13365;52.208;5.488;2023-12-28T15:27:49;14.50;99.90